Time;durP1;ratioP1;P1;durP2;ratioP2;P2;SDS_P1;SDS_P2;PMS_P1;PMS_P2;Temp;Humidity;BMP_temperature;BMP_pressure;BME280_temperature;BME280_humidity;BME280_pressure;Samples;Min_cycle;Max_cycle;Signal;HPM_P1;HPM_P2
2023/04/15 00:00:52;;;;;;;9.40;8.40;;;;;;;10.51;69.17;99747.27;103667;280;39435;-71
2023/04/15 00:03:27;;;;;;;9.30;7.80;;;;;;;10.51;69.26;99748.84;103612;280;38243;-72
2023/04/15 00:06:02;;;;;;;10.60;8.50;;;;;;;10.51;69.32;99749.71;103651;280;38335;-72
2023/04/15 00:08:38;;;;;;;9.90;7.80;;;;;;;10.50;69.11;99745.92;103596;280;39911;-72
2023/04/15 00:11:12;;;;;;;11.60;8.00;;;;;;;10.52;69.25;99747.20;103638;280;39692;-68
2023/04/15 00:13:46;;;;;;;9.20;7.40;;;;;;;10.53;69.30;99745.77;103606;280;39731;-68
2023/04/15 00:16:21;;;;;;;8.50;7.60;;;;;;;10.52;69.75;99747.92;103660;280;38495;-69
2023/04/15 00:18:57;;;;;;;10.50;8.20;;;;;;;10.50;69.85;99746.60;103566;280;39596;-72
2023/04/15 00:21:31;;;;;;;10.40;7.60;;;;;;;10.48;70.08;99752.11;103639;280;38805;-68
2023/04/15 00:24:05;;;;;;;9.10;7.90;;;;;;;10.46;70.04;99752.58;103578;280;39386;-70
2023/04/15 00:26:39;;;;;;;8.30;7.40;;;;;;;10.44;70.20;99749.52;103616;280;38329;-71
2023/04/15 00:29:14;;;;;;;8.40;7.50;;;;;;;10.44;70.02;99744.10;103598;280;38407;-70
2023/04/15 00:31:48;;;;;;;9.30;7.90;;;;;;;10.44;69.86;99742.55;103606;280;38413;-71
2023/04/15 00:34:22;;;;;;;8.80;7.90;;;;;;;10.44;70.19;99744.27;103594;280;38518;-70
2023/04/15 00:36:56;;;;;;;9.80;8.30;;;;;;;10.41;70.72;99742.86;103652;280;38575;-70
2023/04/15 00:39:30;;;;;;;9.10;7.50;;;;;;;10.38;70.77;99742.17;103484;280;175260;-68
2023/04/15 00:42:04;;;;;;;10.50;7.40;;;;;;;10.38;71.17;99745.98;103598;280;39646;-71
2023/04/15 00:44:38;;;;;;;8.50;7.60;;;;;;;10.38;71.43;99740.24;103504;280;175276;-70
2023/04/15 00:47:12;;;;;;;11.40;8.30;;;;;;;10.36;71.95;99745.56;103623;280;38400;-68
2023/04/15 00:49:46;;;;;;;9.90;8.80;;;;;;;10.32;72.89;99738.92;103601;280;38541;-68
2023/04/15 00:52:20;;;;;;;10.00;8.90;;;;;;;10.25;72.86;99739.04;103639;280;38238;-70
2023/04/15 00:54:57;;;;;;;9.40;8.00;;;;;;;10.23;73.01;99739.70;103620;280;39814;-72
2023/04/15 00:57:34;;;;;;;9.90;8.50;;;;;;;10.21;73.09;99738.54;103638;280;38836;-69
2023/04/15 01:00:19;;;;;;;10.10;8.90;;;;;;;10.22;73.15;99743.56;103632;280;38687;-68
2023/04/15 01:02:56;;;;;;;8.40;7.60;;;;;;;10.19;73.60;99744.55;103622;280;39125;-69
2023/04/15 01:05:31;;;;;;;9.40;8.50;;;;;;;10.15;74.11;99746.47;103597;280;38231;-71
2023/04/15 01:08:10;;;;;;;8.90;8.00;;;;;;;10.11;74.58;99740.41;103606;280;38274;-69
2023/04/15 01:10:44;;;;;;;8.50;7.70;;;;;;;10.05;74.63;99738.22;103620;280;38302;-70
2023/04/15 01:13:18;;;;;;;9.00;8.10;;;;;;;10.05;74.34;99737.52;103595;280;39429;-70
2023/04/15 01:15:52;;;;;;;9.20;8.20;;;;;;;10.06;74.54;99738.17;103639;280;39702;-70
2023/04/15 01:18:26;;;;;;;9.50;7.80;;;;;;;10.07;74.43;99734.31;103610;280;38497;-69
2023/04/15 01:21:01;;;;;;;10.00;8.60;;;;;;;10.08;74.48;99735.33;103647;280;38278;-68
2023/04/15 01:23:36;;;;;;;10.30;8.40;;;;;;;10.07;74.60;99737.25;103585;280;38360;-70
2023/04/15 01:26:09;;;;;;;8.40;7.40;;;;;;;10.07;74.75;99737.11;103676;280;38271;-71
2023/04/15 01:28:43;;;;;;;8.20;7.40;;;;;;;10.06;74.73;99739.43;103608;280;38249;-70
2023/04/15 01:31:18;;;;;;;9.70;8.70;;;;;;;10.07;75.15;99738.66;103619;280;39714;-69
2023/04/15 01:33:53;;;;;;;9.80;8.80;;;;;;;10.06;75.51;99740.63;103578;280;39708;-70
2023/04/15 01:36:27;;;;;;;9.60;8.60;;;;;;;10.03;75.82;99741.11;103039;280;689990;-69
2023/04/15 01:39:01;;;;;;;8.90;8.00;;;;;;;10.01;75.51;99737.88;103575;280;38708;-70
2023/04/15 01:41:37;;;;;;;10.20;9.00;;;;;;;10.03;76.08;99740.60;103631;280;39650;-70
2023/04/15 01:44:11;;;;;;;8.90;8.10;;;;;;;10.01;77.04;99741.04;103582;280;38294;-70
2023/04/15 01:46:45;;;;;;;9.40;8.20;;;;;;;9.99;77.04;99743.23;103657;280;39491;-67
2023/04/15 01:49:19;;;;;;;9.10;8.20;;;;;;;9.99;76.96;99734.67;103546;280;175232;-68
2023/04/15 01:51:58;;;;;;;9.90;8.90;;;;;;;9.97;77.27;99737.38;103700;280;38821;-68
2023/04/15 01:54:33;;;;;;;10.20;9.00;;;;;;;9.94;77.57;99737.52;103605;280;38533;-70
2023/04/15 01:57:07;;;;;;;10.60;8.60;;;;;;;9.89;78.29;99739.13;103673;280;38809;-73
2023/04/15 01:59:41;;;;;;;9.20;8.10;;;;;;;9.84;78.50;99737.98;103656;280;38259;-70
2023/04/15 02:02:17;;;;;;;9.30;8.40;;;;;;;9.82;79.54;99736.84;103683;280;39398;-69
2023/04/15 02:04:57;;;;;;;10.20;9.00;;;;;;;9.79;79.25;99737.48;103650;280;39386;-68
2023/04/15 02:07:35;;;;;;;9.90;8.90;;;;;;;9.79;79.90;99740.82;103646;296;39559;-68
2023/04/15 02:10:12;;;;;;;9.50;8.40;;;;;;;9.78;80.25;99739.95;103614;280;38269;-68
2023/04/15 02:12:55;;;;;;;9.70;8.60;;;;;;;9.77;80.19;99738.45;103482;280;40807;-68
2023/04/15 02:15:36;;;;;;;10.80;9.70;;;;;;;9.73;81.35;99739.14;103604;281;38418;-69
2023/04/15 02:18:20;;;;;;;10.40;9.30;;;;;;;9.66;81.65;99737.02;103621;280;39404;-69
2023/04/15 02:20:58;;;;;;;10.80;9.60;;;;;;;9.63;81.31;99732.81;103623;280;39406;-71
2023/04/15 02:23:32;;;;;;;10.50;9.40;;;;;;;9.64;82.02;99733.46;103626;280;39660;-68
2023/04/15 02:26:13;;;;;;;9.80;8.80;;;;;;;9.65;81.77;99728.70;103652;280;38663;-70
2023/04/15 02:28:50;;;;;;;10.10;9.10;;;;;;;9.69;81.75;99733.07;103662;280;38639;-69
2023/04/15 02:31:24;;;;;;;11.20;10.10;;;;;;;9.69;82.57;99735.86;103693;280;39461;-70
2023/04/15 02:33:57;;;;;;;11.50;9.60;;;;;;;9.66;82.54;99734.26;103631;280;38380;-70
2023/04/15 02:36:33;;;;;;;10.50;9.40;;;;;;;9.62;83.07;99735.14;102991;280;906379;-70
2023/04/15 02:39:07;;;;;;;10.30;9.30;;;;;;;9.56;82.85;99734.85;103655;280;38285;-70
2023/04/15 02:41:42;;;;;;;10.60;9.60;;;;;;;9.58;82.95;99730.96;103653;280;38660;-70
2023/04/15 02:44:19;;;;;;;10.20;9.20;;;;;;;9.61;83.02;99732.57;103635;280;38515;-70
2023/04/15 02:46:53;;;;;;;10.40;9.10;;;;;;;9.59;83.26;99737.02;103594;280;39558;-68
2023/04/15 02:49:29;;;;;;;10.80;9.50;;;;;;;9.58;83.18;99733.41;103609;280;38743;-68
2023/04/15 02:52:03;;;;;;;10.30;9.10;;;;;;;9.61;83.17;99730.50;103692;280;39663;-68
2023/04/15 02:54:37;;;;;;;10.10;8.70;;;;;;;9.63;83.51;99729.50;103593;280;39967;-69
2023/04/15 02:57:11;;;;;;;11.50;10.30;;;;;;;9.64;83.17;99728.60;103674;280;39989;-70
2023/04/15 02:59:45;;;;;;;11.10;9.20;;;;;;;9.64;83.13;99726.12;103672;280;40136;-70
2023/04/15 03:02:19;;;;;;;11.00;9.40;;;;;;;9.64;83.27;99729.80;103614;280;38413;-69
2023/04/15 03:04:53;;;;;;;10.90;9.70;;;;;;;9.63;83.56;99728.81;103618;280;38306;-69
2023/04/15 03:07:27;;;;;;;12.20;9.70;;;;;;;9.63;83.77;99728.46;103635;280;38461;-71
2023/04/15 03:10:04;;;;;;;10.70;9.50;;;;;;;9.64;83.54;99730.84;103630;280;38418;-69
2023/04/15 03:12:41;;;;;;;13.30;10.30;;;;;;;9.65;83.94;99729.79;103472;282;38492;-70
2023/04/15 03:15:19;;;;;;;10.50;9.50;;;;;;;9.62;84.00;99734.45;103570;280;38508;-68
2023/04/15 03:17:52;;;;;;;11.30;9.60;;;;;;;9.60;84.21;99731.39;103598;280;39088;-73
2023/04/15 03:20:26;;;;;;;10.70;9.60;;;;;;;9.57;84.00;99731.83;103623;280;38808;-71
2023/04/15 03:23:00;;;;;;;9.90;9.00;;;;;;;9.59;83.79;99734.91;103622;280;39469;-71
2023/04/15 03:25:36;;;;;;;10.40;9.40;;;;;;;9.62;83.76;99727.64;103659;280;38558;-73
2023/04/15 03:28:10;;;;;;;11.10;9.90;;;;;;;9.65;84.06;99730.29;103616;280;38364;-68
2023/04/15 03:30:47;;;;;;;12.00;9.80;;;;;;;9.64;84.02;99727.54;103607;280;39396;-70
2023/04/15 03:33:21;;;;;;;10.20;8.60;;;;;;;9.63;83.67;99731.41;103622;280;39390;-70
2023/04/15 03:35:55;;;;;;;10.10;9.10;;;;;;;9.63;83.85;99729.67;103655;280;38287;-68
2023/04/15 03:38:30;;;;;;;10.80;9.70;;;;;;;9.63;84.02;99737.34;103583;280;38527;-71
2023/04/15 03:41:04;;;;;;;11.00;9.90;;;;;;;9.62;83.92;99734.61;103615;280;39418;-69
2023/04/15 03:43:38;;;;;;;10.70;9.50;;;;;;;9.62;84.08;99734.63;103647;280;38741;-68
2023/04/15 03:46:22;;;;;;;10.20;9.00;;;;;;;9.63;84.08;99737.54;103589;280;39504;-68
2023/04/15 03:49:00;;;;;;;10.10;9.10;;;;;;;9.61;84.01;99734.99;103492;280;39412;-68
2023/04/15 03:51:37;;;;;;;10.40;9.10;;;;;;;9.61;84.35;99736.58;103483;280;39021;-69
2023/04/15 03:54:14;;;;;;;10.90;9.80;;;;;;;9.57;84.61;99739.53;103593;280;38622;-70
2023/04/15 03:56:48;;;;;;;10.60;9.50;;;;;;;9.54;84.43;99742.58;103644;280;38646;-73
2023/04/15 03:59:23;;;;;;;10.10;9.00;;;;;;;9.54;84.41;99743.64;103602;280;38332;-71
2023/04/15 04:02:00;;;;;;;11.20;9.80;;;;;;;9.55;84.31;99743.27;103523;280;175390;-69
2023/04/15 04:04:34;;;;;;;10.20;9.10;;;;;;;9.59;84.58;99746.23;103557;280;38552;-70
2023/04/15 04:07:08;;;;;;;11.20;9.70;;;;;;;9.61;84.29;99747.38;103632;280;39469;-72
2023/04/15 04:09:42;;;;;;;11.90;9.50;;;;;;;9.62;84.41;99740.86;103610;280;38813;-69
2023/04/15 04:12:16;;;;;;;10.70;9.50;;;;;;;9.64;84.21;99744.77;103617;280;39718;-70
2023/04/15 04:14:50;;;;;;;11.00;9.00;;;;;;;9.66;84.27;99737.89;103556;280;175340;-69
2023/04/15 04:17:25;;;;;;;9.60;8.60;;;;;;;9.69;84.42;99742.46;103671;280;38223;-68
2023/04/15 04:20:03;;;;;;;11.10;9.60;;;;;;;9.68;84.55;99743.75;103619;278;38470;-69
2023/04/15 04:22:40;;;;;;;12.60;9.30;;;;;;;9.68;84.42;99741.83;103586;280;38508;-71
2023/04/15 04:25:15;;;;;;;9.80;8.60;;;;;;;9.66;84.86;99742.27;103587;280;38250;-73
2023/04/15 04:27:51;;;;;;;9.40;8.10;;;;;;;9.65;84.70;99741.25;103629;280;38824;-73
2023/04/15 04:30:25;;;;;;;10.20;9.00;;;;;;;9.66;84.47;99741.57;103661;280;38263;-71
2023/04/15 04:33:00;;;;;;;10.50;8.90;;;;;;;9.69;84.59;99739.69;103629;280;39437;-69
2023/04/15 04:35:36;;;;;;;12.20;9.50;;;;;;;9.69;84.54;99742.80;103661;280;39749;-69
2023/04/15 04:38:11;;;;;;;10.30;8.80;;;;;;;9.69;84.64;99742.80;103665;280;38610;-69
2023/04/15 04:40:47;;;;;;;9.70;8.20;;;;;;;9.70;84.78;99742.96;103617;280;38802;-71
2023/04/15 04:43:23;;;;;;;9.20;8.30;;;;;;;9.69;85.18;99744.57;103647;280;39671;-71
2023/04/15 04:45:58;;;;;;;11.90;9.40;;;;;;;9.66;85.26;99744.86;103679;280;38243;-69
2023/04/15 04:48:33;;;;;;;11.70;9.20;;;;;;;9.66;85.24;99748.55;103632;280;38551;-71
2023/04/15 04:51:10;;;;;;;9.00;8.10;;;;;;;9.64;85.61;99749.66;103654;280;39977;-71
2023/04/15 04:53:44;;;;;;;12.50;8.60;;;;;;;9.62;85.64;99747.83;103673;280;39030;-69
2023/04/15 04:56:20;;;;;;;9.90;8.40;;;;;;;9.64;85.76;99743.90;103673;280;38672;-70
2023/04/15 04:58:58;;;;;;;9.50;8.60;;;;;;;9.67;85.60;99739.24;103628;280;38271;-71
2023/04/15 05:01:32;;;;;;;10.20;8.90;;;;;;;9.71;85.90;99743.97;103619;280;38353;-72
2023/04/15 05:04:15;;;;;;;10.80;9.10;;;;;;;9.66;86.25;99747.66;103656;280;39146;-72
2023/04/15 05:06:51;;;;;;;9.30;8.30;;;;;;;9.63;85.93;99745.34;103648;280;38269;-71
2023/04/15 05:09:26;;;;;;;9.80;8.40;;;;;;;9.64;86.01;99751.72;103617;280;38261;-72
2023/04/15 05:12:00;;;;;;;9.30;8.40;;;;;;;9.69;86.12;99749.44;103448;280;38420;-69
2023/04/15 05:14:34;;;;;;;9.70;8.70;;;;;;;9.69;86.10;99747.18;103643;280;38231;-70
2023/04/15 05:17:08;;;;;;;10.30;9.20;;;;;;;9.70;85.90;99749.38;103650;280;38239;-72
2023/04/15 05:19:44;;;;;;;8.60;7.70;;;;;;;9.73;86.05;99748.75;103506;280;38828;-71
2023/04/15 05:22:18;;;;;;;10.60;8.80;;;;;;;9.72;86.19;99750.50;103710;280;39383;-73
2023/04/15 05:24:53;;;;;;;9.40;8.50;;;;;;;9.69;86.21;99747.86;103658;280;38491;-74
2023/04/15 05:27:27;;;;;;;8.90;8.00;;;;;;;9.71;86.16;99748.14;103706;280;38268;-71
2023/04/15 05:30:01;;;;;;;10.50;8.40;;;;;;;9.71;86.26;99747.61;103688;280;39435;-72
2023/04/15 05:32:36;;;;;;;9.20;8.30;;;;;;;9.71;86.37;99744.30;103693;280;38243;-71
2023/04/15 05:35:14;;;;;;;8.60;7.70;;;;;;;9.69;86.73;99752.73;103684;280;38483;-71
2023/04/15 05:37:50;;;;;;;8.80;7.70;;;;;;;9.65;86.63;99753.99;103704;280;38436;-73
2023/04/15 05:40:25;;;;;;;10.00;8.60;;;;;;;9.65;86.66;99753.10;103679;280;38528;-73
2023/04/15 05:42:59;;;;;;;9.20;8.20;;;;;;;9.68;86.80;99752.42;103690;280;39676;-71
2023/04/15 05:45:33;;;;;;;10.50;8.00;;;;;;;9.66;86.95;99752.86;103679;280;38286;-70
2023/04/15 05:48:10;;;;;;;9.40;8.40;;;;;;;9.68;86.77;99758.20;103668;280;38267;-72
2023/04/15 05:50:45;;;;;;;8.50;7.20;;;;;;;9.69;87.43;99756.78;103647;280;38234;-69
2023/04/15 05:53:20;;;;;;;9.70;8.00;;;;;;;9.67;87.09;99757.36;103677;280;39650;-71
2023/04/15 05:55:54;;;;;;;8.50;7.70;;;;;;;9.69;87.26;99759.03;103683;280;38645;-69
2023/04/15 05:58:29;;;;;;;8.10;7.30;;;;;;;9.70;87.28;99761.23;103530;280;175334;-68
2023/04/15 06:01:03;;;;;;;9.30;7.90;;;;;;;9.74;87.20;99761.59;103660;280;40018;-68
2023/04/15 06:03:36;;;;;;;7.90;7.10;;;;;;;9.76;87.36;99758.02;103630;280;38522;-68
2023/04/15 06:06:10;;;;;;;8.60;7.40;;;;;;;9.79;87.18;99754.73;103711;278;39570;-72
2023/04/15 06:08:45;;;;;;;8.20;7.20;;;;;;;9.82;87.09;99761.23;103655;280;38516;-70
2023/04/15 06:11:18;;;;;;;8.50;7.70;;;;;;;9.80;87.04;99759.05;103693;280;38259;-71
2023/04/15 06:13:53;;;;;;;8.30;7.10;;;;;;;9.79;87.11;99758.92;103602;280;38409;-70
2023/04/15 06:16:27;;;;;;;8.90;7.40;;;;;;;9.80;87.36;99759.75;103644;280;40309;-68
2023/04/15 06:19:00;;;;;;;7.80;7.10;;;;;;;9.81;87.72;99764.38;103648;280;38927;-69
2023/04/15 06:21:37;;;;;;;7.70;7.00;;;;;;;9.78;87.71;99765.40;103682;280;40087;-76
2023/04/15 06:24:15;;;;;;;7.50;6.70;;;;;;;9.75;87.98;99766.75;103666;280;38247;-74
2023/04/15 06:26:49;;;;;;;7.60;6.80;;;;;;;9.70;88.44;99772.54;103618;280;39001;-72
2023/04/15 06:29:23;;;;;;;7.90;6.90;;;;;;;9.67;87.77;99771.65;103639;280;38260;-72
2023/04/15 06:31:58;;;;;;;7.50;6.80;;;;;;;9.70;88.70;99775.01;103642;280;39453;-73
2023/04/15 06:34:32;;;;;;;7.90;7.10;;;;;;;9.71;88.20;99780.53;103635;280;39646;-71
2023/04/15 06:37:08;;;;;;;8.20;7.20;;;;;;;9.69;88.30;99778.17;103679;280;38877;-69
2023/04/15 06:39:43;;;;;;;7.10;6.50;;;;;;;9.69;88.34;99777.45;103633;280;38553;-69
2023/04/15 06:42:17;;;;;;;7.00;6.00;;;;;;;9.70;88.40;99778.98;103623;281;39882;-69
2023/04/15 06:44:53;;;;;;;7.30;6.60;;;;;;;9.69;88.46;99782.20;103573;280;38918;-70
2023/04/15 06:47:26;;;;;;;7.50;6.40;;;;;;;9.71;88.39;99781.05;103670;280;39012;-68
2023/04/15 06:50:01;;;;;;;7.40;6.40;;;;;;;9.73;88.24;99785.50;103606;280;38518;-68
2023/04/15 06:52:34;;;;;;;7.80;6.70;;;;;;;9.72;88.32;99783.45;103624;280;38599;-73
2023/04/15 06:55:10;;;;;;;7.40;6.70;;;;;;;9.69;88.40;99786.38;103626;280;39088;-71
2023/04/15 06:57:44;;;;;;;7.60;6.50;;;;;;;9.65;88.69;99794.01;103546;281;39071;-71
2023/04/15 07:00:20;;;;;;;7.00;6.30;;;;;;;9.63;88.79;99791.30;103595;280;38518;-68
2023/04/15 07:02:56;;;;;;;7.50;6.50;;;;;;;9.63;88.86;99795.52;103644;269;39655;-71
2023/04/15 07:05:31;;;;;;;6.40;5.80;;;;;;;9.66;89.02;99793.31;103672;280;38418;-71
2023/04/15 07:08:05;;;;;;;7.80;6.30;;;;;;;9.67;89.01;99795.52;103586;280;40734;-72
2023/04/15 07:10:40;;;;;;;7.70;6.40;;;;;;;9.69;88.73;99798.36;103648;280;38260;-70
2023/04/15 07:13:16;;;;;;;6.30;5.70;;;;;;;9.74;88.74;99802.14;103646;280;40084;-70
2023/04/15 07:15:50;;;;;;;5.90;5.30;;;;;;;9.76;88.90;99806.26;103636;280;40141;-70
2023/04/15 07:18:24;;;;;;;5.80;5.10;;;;;;;9.74;88.98;99807.39;103625;280;39017;-72
2023/04/15 07:20:58;;;;;;;6.60;6.00;;;;;;;9.72;88.95;99809.41;103619;280;38959;-68
2023/04/15 07:23:32;;;;;;;5.90;5.40;;;;;;;9.69;88.99;99809.87;103623;280;39669;-68
2023/04/15 07:26:06;;;;;;;5.70;5.20;;;;;;;9.67;88.98;99811.02;103544;280;172599;-70
2023/04/15 07:28:41;;;;;;;6.10;5.50;;;;;;;9.70;88.99;99805.63;103615;280;38971;-69
2023/04/15 07:31:16;;;;;;;6.00;5.30;;;;;;;9.74;89.17;99808.61;103651;280;38467;-74
2023/04/15 07:33:50;;;;;;;5.90;5.30;;;;;;;9.76;89.13;99808.02;103604;280;38294;-73
2023/04/15 07:36:24;;;;;;;6.00;5.40;;;;;;;9.80;89.24;99810.95;103470;282;38377;-71
2023/04/15 07:39:00;;;;;;;6.10;5.50;;;;;;;9.78;89.03;99812.77;103570;280;39622;-71
2023/04/15 07:41:34;;;;;;;5.50;5.00;;;;;;;9.76;89.23;99807.27;103620;280;38500;-70
2023/04/15 07:44:08;;;;;;;5.50;5.00;;;;;;;9.77;89.25;99806.23;103597;280;39373;-72
2023/04/15 07:46:45;;;;;;;5.20;4.60;;;;;;;9.80;89.09;99806.09;103631;280;39608;-69
2023/04/15 07:49:21;;;;;;;5.90;4.90;;;;;;;9.82;89.28;99811.05;103533;280;38883;-70
2023/04/15 07:51:56;;;;;;;5.80;5.30;;;;;;;9.86;89.15;99804.96;103636;280;38512;-71
2023/04/15 07:54:31;;;;;;;5.10;4.60;;;;;;;9.88;89.05;99806.47;103607;280;39536;-73
2023/04/15 07:57:05;;;;;;;4.80;4.30;;;;;;;9.88;88.79;99809.58;103635;280;39386;-69
2023/04/15 07:59:39;;;;;;;5.00;4.40;;;;;;;9.87;88.62;99804.20;103561;280;38714;-69
2023/04/15 08:02:13;;;;;;;5.70;4.30;;;;;;;9.90;88.58;99807.23;103585;280;39004;-71
2023/04/15 08:04:54;;;;;;;5.50;4.30;;;;;;;9.92;88.72;99805.55;103585;280;38373;-72
2023/04/15 08:07:28;;;;;;;5.80;5.00;;;;;;;9.93;88.67;99803.41;103622;280;38556;-72
2023/04/15 08:10:02;;;;;;;4.70;4.30;;;;;;;9.91;88.57;99807.02;103646;280;38803;-69
2023/04/15 08:12:37;;;;;;;4.20;3.80;;;;;;;9.90;88.40;99801.81;103661;280;38316;-71
2023/04/15 08:15:14;;;;;;;4.00;3.60;;;;;;;9.92;88.44;99801.19;103617;280;39625;-71
2023/04/15 08:17:48;;;;;;;6.70;4.60;;;;;;;9.96;88.50;99803.98;103616;280;38488;-73
2023/04/15 08:20:25;;;;;;;4.60;4.20;;;;;;;9.99;88.38;99802.27;103602;280;38271;-71
2023/04/15 08:23:00;;;;;;;4.40;3.90;;;;;;;9.97;88.32;99795.20;103616;280;38391;-71
2023/04/15 08:25:34;;;;;;;4.30;3.80;;;;;;;9.95;88.19;99799.30;103535;280;172618;-70
2023/04/15 08:28:10;;;;;;;4.30;3.20;;;;;;;9.98;88.30;99802.82;103615;280;39617;-73
2023/04/15 08:30:46;;;;;;;3.80;3.50;;;;;;;10.02;88.23;99804.41;103639;280;39934;-71
2023/04/15 08:33:20;;;;;;;4.00;3.60;;;;;;;10.07;88.31;99802.29;103638;280;38979;-72
2023/04/15 08:35:53;;;;;;;5.20;3.60;;;;;;;10.07;88.22;99801.40;103489;280;175850;-69
2023/04/15 08:38:28;;;;;;;3.30;3.00;;;;;;;10.05;88.32;99799.73;103619;280;38571;-71
2023/04/15 08:41:07;;;;;;;3.60;3.30;;;;;;;10.01;88.24;99802.16;103625;280;38997;-72
2023/04/15 08:43:47;;;;;;;4.20;3.00;;;;;;;10.04;88.32;99801.52;103643;280;39799;-70
2023/04/15 08:46:24;;;;;;;3.30;3.00;;;;;;;10.09;88.51;99800.95;103629;280;38396;-70
2023/04/15 08:49:01;;;;;;;3.40;3.10;;;;;;;10.12;88.59;99803.44;103645;280;39542;-69
2023/04/15 08:51:53;;;;;;;3.40;3.10;;;;;;;10.16;88.52;99803.27;103659;280;38393;-73
2023/04/15 08:54:28;;;;;;;3.60;3.00;;;;;;;10.22;88.62;99804.36;103568;280;38223;-71
2023/04/15 08:57:04;;;;;;;3.10;2.80;;;;;;;10.27;88.35;99808.22;103416;280;175400;-68
2023/04/15 08:59:43;;;;;;;2.50;2.30;;;;;;;10.29;88.47;99809.15;103606;280;39716;-68
2023/04/15 09:02:17;;;;;;;4.40;3.00;;;;;;;10.26;88.25;99813.10;103636;280;38238;-72
2023/04/15 09:04:59;;;;;;;4.00;2.90;;;;;;;10.29;88.16;99808.27;103619;280;38306;-73
2023/04/15 09:07:46;;;;;;;3.80;3.20;;;;;;;10.34;88.51;99813.27;103582;280;39600;-73
2023/04/15 09:10:28;;;;;;;3.60;3.30;;;;;;;10.33;88.02;99809.46;103656;280;38266;-73
2023/04/15 09:13:21;;;;;;;3.20;2.90;;;;;;;10.41;88.21;99810.20;103661;280;38232;-71
2023/04/15 09:15:55;;;;;;;3.40;3.10;;;;;;;10.50;88.44;99809.91;103614;280;38350;-71
2023/04/15 09:18:33;;;;;;;3.60;3.20;;;;;;;10.57;88.16;99807.86;103704;280;38400;-72
2023/04/15 09:21:16;;;;;;;2.90;2.70;;;;;;;10.60;87.79;99809.14;103678;280;38512;-72
2023/04/15 09:24:01;;;;;;;2.80;2.60;;;;;;;10.61;87.42;99813.08;103659;280;38837;-72
2023/04/15 09:26:39;;;;;;;2.90;2.60;;;;;;;10.61;87.71;99811.32;103701;280;39153;-74
2023/04/15 09:29:17;;;;;;;4.20;2.80;;;;;;;10.61;87.73;99809.59;103483;280;175401;-72
2023/04/15 09:31:52;;;;;;;2.90;2.50;;;;;;;10.63;87.86;99810.88;103503;280;41426;-71
2023/04/15 09:34:37;;;;;;;2.70;2.50;;;;;;;10.62;87.48;99815.64;103242;280;646739;-73
2023/04/15 09:37:12;;;;;;;2.60;2.30;;;;;;;10.60;87.44;99817.13;103453;280;38564;-71
2023/04/15 09:39:54;;;;;;;3.40;2.40;;;;;;;10.59;87.39;99818.39;103656;273;38411;-73
2023/04/15 09:42:28;;;;;;;3.20;2.80;;;;;;;10.57;87.56;99818.98;103715;280;39699;-72
2023/04/15 09:45:11;;;;;;;3.20;2.40;;;;;;;10.58;87.53;99819.12;103666;280;38611;-70
2023/04/15 09:47:45;;;;;;;2.80;2.50;;;;;;;10.59;87.72;99826.26;103686;280;39130;-73
2023/04/15 09:50:19;;;;;;;2.50;2.30;;;;;;;10.58;87.50;99826.80;103693;278;39398;-71
2023/04/15 09:52:53;;;;;;;2.40;2.20;;;;;;;10.59;87.66;99818.58;103687;280;38383;-73
2023/04/15 09:55:27;;;;;;;2.60;2.00;;;;;;;10.64;87.98;99825.17;103685;269;38644;-70
2023/04/15 09:58:04;;;;;;;3.40;2.40;;;;;;;10.63;87.70;99822.77;103644;280;38566;-73
2023/04/15 10:00:38;;;;;;;2.70;2.30;;;;;;;10.64;87.83;99831.94;103665;280;38315;-70
2023/04/15 10:03:12;;;;;;;2.00;1.80;;;;;;;10.62;87.70;99828.04;103649;280;38383;-71
2023/04/15 10:05:47;;;;;;;2.20;2.00;;;;;;;10.57;87.59;99832.95;103665;280;39912;-70
2023/04/15 10:08:23;;;;;;;2.50;2.30;;;;;;;10.59;87.75;99835.30;103644;280;38874;-70
2023/04/15 10:10:59;;;;;;;2.50;2.30;;;;;;;10.63;87.97;99829.94;103752;269;38419;-72
2023/04/15 10:13:36;;;;;;;2.70;2.30;;;;;;;10.72;88.30;99831.91;103508;280;175292;-73
2023/04/15 10:16:19;;;;;;;2.40;2.20;;;;;;;10.77;88.07;99833.62;103703;280;39959;-71
2023/04/15 10:19:01;;;;;;;2.50;2.30;;;;;;;10.79;88.14;99832.45;103724;280;38251;-72
2023/04/15 10:21:37;;;;;;;2.50;2.30;;;;;;;10.85;88.04;99829.36;103591;282;38995;-71
2023/04/15 10:24:18;;;;;;;2.70;2.30;;;;;;;10.89;87.85;99829.17;103647;280;38224;-71
2023/04/15 10:26:59;;;;;;;2.60;2.30;;;;;;;10.96;87.70;99825.90;103493;280;38844;-70
2023/04/15 10:29:38;;;;;;;2.30;2.10;;;;;;;11.04;87.81;99828.44;103551;280;39413;-71
2023/04/15 10:32:21;;;;;;;2.80;2.50;;;;;;;11.07;87.48;99823.95;103527;280;38226;-71
2023/04/15 10:35:07;;;;;;;3.00;2.20;;;;;;;11.06;87.18;99825.38;103435;280;39613;-70
2023/04/15 10:37:56;;;;;;;2.50;2.20;;;;;;;11.01;87.11;99827.91;103617;280;174902;-69
2023/04/15 10:40:55;;;;;;;2.60;2.20;;;;;;;11.00;86.99;99828.63;103699;280;38296;-71
2023/04/15 10:43:49;;;;;;;2.60;2.40;;;;;;;11.02;87.35;99829.11;103662;280;38503;-73
2023/04/15 10:46:46;;;;;;;3.30;3.00;;;;;;;11.04;87.32;99826.88;103697;280;38232;-72
2023/04/15 10:49:30;;;;;;;3.40;2.30;;;;;;;11.07;87.39;99829.36;103663;280;38453;-69
2023/04/15 10:52:25;;;;;;;3.00;2.60;;;;;;;11.07;87.01;99825.16;103513;282;38506;-72
2023/04/15 10:55:20;;;;;;;2.50;2.30;;;;;;;11.12;87.37;99828.41;103568;280;39505;-70
2023/04/15 10:58:01;;;;;;;;;;;;;;;11.18;87.12;99826.20;103534;280;38345;-72
2023/04/15 11:00:38;;;;;;;2.70;2.50;;;;;;;11.18;86.96;99829.02;103571;280;191085;-71
2023/04/15 11:03:22;;;;;;;3.00;2.70;;;;;;;11.14;86.76;99825.38;103576;280;175270;-73
2023/04/15 11:06:01;;;;;;;3.00;2.70;;;;;;;11.08;86.87;99830.70;103500;280;38227;-72
2023/04/15 11:09:01;;;;;;;2.70;2.30;;;;;;;11.08;87.03;99833.52;103517;280;38508;-71
2023/04/15 11:12:12;;;;;;;2.60;2.40;;;;;;;11.07;86.78;99826.42;103653;280;39633;-71
2023/04/15 11:14:46;;;;;;;2.80;2.50;;;;;;;11.06;86.86;99827.33;103680;280;38281;-70
2023/04/15 11:17:28;;;;;;;3.20;2.80;;;;;;;11.06;86.94;99830.25;103678;280;40340;-71
2023/04/15 11:20:04;;;;;;;2.60;2.20;;;;;;;11.07;86.93;99824.13;103623;280;39592;-72
2023/04/15 11:22:38;;;;;;;2.50;2.10;;;;;;;11.07;86.87;99824.48;103609;280;39416;-71
2023/04/15 11:25:21;;;;;;;2.90;2.30;;;;;;;11.08;86.91;99823.39;103653;280;39439;-70
2023/04/15 11:28:01;;;;;;;3.20;2.40;;;;;;;11.08;86.63;99825.45;103596;280;39402;-74
2023/04/15 11:30:36;;;;;;;3.40;2.70;;;;;;;11.05;86.72;99825.79;103648;280;37855;-71
2023/04/15 11:33:12;;;;;;;3.90;2.80;;;;;;;11.00;86.80;99826.73;103651;280;38307;-71
2023/04/15 11:35:46;;;;;;;4.80;3.30;;;;;;;11.01;87.16;99833.69;103597;280;38942;-70
2023/04/15 11:38:21;;;;;;;3.60;2.70;;;;;;;11.00;87.18;99837.36;103619;280;39065;-69
2023/04/15 11:40:55;;;;;;;3.40;3.10;;;;;;;11.02;87.46;99841.15;103607;280;39888;-71
2023/04/15 11:43:29;;;;;;;2.70;2.50;;;;;;;10.99;87.37;99833.95;103607;280;38774;-72
2023/04/15 11:46:07;;;;;;;2.30;2.10;;;;;;;10.96;87.19;99831.83;103644;280;40857;-70
2023/04/15 11:48:46;;;;;;;2.70;2.40;;;;;;;10.95;87.14;99831.33;103515;281;38502;-72
2023/04/15 11:51:21;;;;;;;3.10;2.80;;;;;;;11.02;87.36;99834.14;103577;280;38284;-74
2023/04/15 11:53:56;;;;;;;3.90;3.30;;;;;;;11.05;87.49;99835.39;103616;280;38291;-72
2023/04/15 11:56:30;;;;;;;5.70;4.70;;;;;;;11.03;87.39;99836.73;103621;280;38366;-72
2023/04/15 11:59:10;;;;;;;7.90;5.00;;;;;;;10.98;87.21;99842.17;103623;280;38752;-73
2023/04/15 12:01:46;;;;;;;2.90;2.10;;;;;;;10.99;87.46;99845.48;103714;280;38511;-70
2023/04/15 12:04:23;;;;;;;3.70;3.40;;;;;;;10.96;87.13;99844.56;103620;280;39006;-70
2023/04/15 12:07:08;;;;;;;3.50;2.70;;;;;;;10.97;87.04;99843.13;103636;280;39344;-72
2023/04/15 12:09:44;;;;;;;4.10;3.20;;;;;;;11.01;87.17;99849.36;103586;280;38360;-71
2023/04/15 12:12:19;;;;;;;3.50;2.50;;;;;;;11.09;87.46;99852.30;103480;282;38263;-71
2023/04/15 12:14:56;;;;;;;3.50;2.10;;;;;;;11.20;87.64;99858.27;103517;280;40183;-69
2023/04/15 12:17:31;;;;;;;3.20;2.90;;;;;;;11.33;87.90;99859.34;103674;280;38493;-73
2023/04/15 12:20:09;;;;;;;2.60;1.90;;;;;;;11.52;88.04;99862.98;103641;280;39374;-69